Time;durP1;ratioP1;P1;durP2;ratioP2;P2;SDS_P1;SDS_P2;PMS_P1;PMS_P2;Temp;Humidity;BMP_temperature;BMP_pressure;BME280_temperature;BME280_humidity;BME280_pressure;Samples;Min_cycle;Max_cycle;Signal;HPM_P1;HPM_P2
2022/12/27 10:21:33;;;;;;;77.80;10.27;;;6.70;99.90;;;;;;4928726;23;20239;-84
2022/12/27 10:24:22;;;;;;;69.05;10.32;;;6.80;99.90;;;;;;4926048;29;20176;-85
2022/12/27 10:26:48;;;;;;;72.68;7.78;;;6.90;99.90;;;;;;4926762;29;20504;-85
2022/12/27 10:29:21;;;;;;;70.25;7.93;;;7.00;99.90;;;;;;4925262;29;20232;-84
2022/12/27 10:31:47;;;;;;;67.80;7.07;;;7.10;99.90;;;;;;4908504;29;20161;-85
2022/12/27 10:34:15;;;;;;;65.38;4.88;;;7.10;99.90;;;;;;4926426;29;20165;-85
2022/12/27 10:36:43;;;;;;;67.55;5.30;;;7.20;99.90;;;;;;4926431;29;20225;-85
2022/12/27 10:39:24;;;;;;;71.28;5.47;;;7.30;99.90;;;;;;4926430;29;20173;-85
2022/12/27 10:42:00;;;;;;;64.78;4.70;;;7.40;99.90;;;;;;4909756;29;20161;-84
2022/12/27 10:44:25;;;;;;;67.80;4.95;;;7.40;99.90;;;;;;4927208;29;20157;-84
2022/12/27 10:46:53;;;;;;;70.83;6.20;;;7.30;99.90;;;;;;4925954;29;20224;-84
2022/12/27 10:49:30;;;;;;;69.85;6.53;;;7.30;99.90;;;;;;4926365;29;20529;-83
2022/12/27 10:52:08;;;;;;;75.35;7.03;;;7.20;99.90;;;;;;4909614;29;20172;-84
2022/12/27 10:54:47;;;;;;;66.22;5.18;;;7.20;99.90;;;;;;4926812;29;20177;-84
2022/12/27 10:57:33;;;;;;;66.43;6.05;;;7.20;99.90;;;;;;4926711;29;20204;-84
2022/12/27 11:00:19;;;;;;;68.70;6.13;;;7.30;99.90;;;;;;4926318;29;20189;-83
2022/12/27 11:02:54;;;;;;;69.38;5.75;;;7.50;99.90;;;;;;4926087;29;20224;-84
2022/12/27 11:05:23;;;;;;;68.53;5.75;;;7.60;99.90;;;;;;4909235;29;20168;-82
2022/12/27 11:07:49;;;;;;;67.03;5.60;;;7.70;99.90;;;;;;4924464;29;20177;-84
2022/12/27 11:10:18;;;;;;;67.60;6.27;;;7.90;99.90;;;;;;4908888;29;20284;-85
2022/12/27 11:12:54;;;;;;;71.50;6.35;;;8.00;99.90;;;;;;4908851;29;20174;-85
2022/12/27 11:15:19;;;;;;;70.15;6.85;;;8.30;99.90;;;;;;4926390;29;20185;-84
2022/12/27 11:17:55;;;;;;;68.77;5.80;;;8.40;99.90;;;;;;4908755;29;20208;-85
2022/12/27 11:20:30;;;;;;;67.22;4.22;;;8.50;99.90;;;;;;4925287;29;20436;-84
2022/12/27 11:23:18;;;;;;;65.03;4.45;;;8.60;99.90;;;;;;4926512;29;20266;-84
2022/12/27 11:25:55;;;;;;;66.18;4.68;;;8.70;99.90;;;;;;4925860;29;20188;-85
2022/12/27 11:28:39;;;;;;;66.22;4.85;;;8.60;99.90;;;;;;4908334;29;20262;-85
2022/12/27 11:31:14;;;;;;;73.43;6.35;;;8.60;99.90;;;;;;4925337;29;20193;-85
2022/12/27 11:33:51;;;;;;;66.28;4.80;;;8.50;99.90;;;;;;4925832;29;20672;-85
2022/12/27 11:36:39;;;;;;;68.45;5.38;;;8.50;99.90;;;;;;4925484;29;20181;-84
2022/12/27 11:39:07;;;;;;;66.40;4.03;;;8.50;99.90;;;;;;4924965;29;20232;-85
2022/12/27 11:41:41;;;;;;;66.90;4.53;;;8.50;99.90;;;;;;4925126;29;20561;-85
2022/12/27 11:44:07;;;;;;;69.40;4.45;;;8.50;99.90;;;;;;4925158;29;20169;-85
2022/12/27 11:46:59;;;;;;;71.70;4.63;;;8.50;99.90;;;;;;4925007;29;20165;-85
2022/12/27 11:49:47;;;;;;;66.15;4.47;;;8.40;99.90;;;;;;4908479;29;20186;-85
2022/12/27 11:52:44;;;;;;;66.32;5.65;;;8.40;99.90;;;;;;4907709;29;20164;-85
2022/12/27 11:55:12;;;;;;;64.70;4.65;;;8.40;99.90;;;;;;4925039;29;20221;-86
2022/12/27 11:58:16;;;;;;;67.15;4.85;;;8.30;99.90;;;;;;4907352;29;20161;-85
2022/12/27 12:01:07;;;;;;;67.90;5.25;;;8.30;99.90;;;;;;4924371;29;20279;-85
2022/12/27 12:04:17;;;;;;;67.40;4.70;;;8.30;99.90;;;;;;4925214;29;20193;-85
2022/12/27 12:07:11;;;;;;;68.55;6.00;;;8.20;99.90;;;;;;4914777;29;20181;-85
2022/12/27 12:10:07;;;;;;;71.40;5.40;;;8.20;99.90;;;;;;4924494;29;20189;-85
2022/12/27 12:13:14;;;;;;;70.28;6.35;;;8.30;99.90;;;;;;4924383;29;20145;-85
2022/12/27 12:16:17;;;;;;;69.47;5.88;;;8.30;99.90;;;;;;4913975;29;20213;-85
2022/12/27 12:19:18;;;;;;;68.55;6.30;;;8.40;99.90;;;;;;4924981;29;20192;-85
2022/12/27 12:22:06;;;;;;;68.13;6.30;;;8.40;99.90;;;;;;4877691;29;20197;-85
2022/12/27 12:24:32;;;;;;;67.80;5.22;;;8.50;99.90;;;;;;4923369;29;20169;-83
2022/12/27 12:27:09;;;;;;;68.60;5.27;;;8.50;99.90;;;;;;4903440;29;20177;-84
2022/12/27 12:29:58;;;;;;;68.05;5.72;;;8.50;99.90;;;;;;4920816;29;20189;-84
2022/12/27 12:33:03;;;;;;;65.68;5.13;;;8.60;99.90;;;;;;4920877;29;20632;-83
2022/12/27 12:35:56;;;;;;;72.13;6.05;;;8.70;99.90;;;;;;4922596;29;20177;-85
2022/12/27 12:38:31;;;;;;;68.20;5.97;;;8.60;99.90;;;;;;4922224;29;20153;-83
2022/12/27 12:41:14;;;;;;;66.40;4.88;;;8.70;99.90;;;;;;4923467;29;20195;-84
2022/12/27 12:43:49;;;;;;;68.68;5.45;;;8.80;99.90;;;;;;4923815;29;20153;-84
2022/12/27 12:46:33;;;;;;;67.60;4.90;;;8.80;99.90;;;;;;4923197;29;20176;-83
2022/12/27 12:49:17;;;;;;;71.55;4.57;;;8.80;99.90;;;;;;4923689;29;20189;-84
2022/12/27 12:51:56;;;;;;;67.75;4.78;;;8.80;99.90;;;;;;4922746;29;20160;-84
2022/12/27 12:54:44;;;;;;;71.63;4.63;;;8.80;99.90;;;;;;4905955;29;20161;-84
2022/12/27 12:57:15;;;;;;;65.80;5.20;;;8.80;99.90;;;;;;4923648;29;20158;-85
2022/12/27 12:59:49;;;;;;;65.82;4.65;;;8.80;99.90;;;;;;4906273;29;20284;-84
2022/12/27 13:02:43;;;;;;;67.65;4.93;;;8.80;99.90;;;;;;4923896;29;20168;-84
2022/12/27 13:08:25;;;;;;;77.57;6.13;;;8.90;99.90;;;;;;4922169;29;20209;-84
2022/12/27 13:11:16;;;;;;;67.53;4.95;;;9.00;99.90;;;;;;4888435;29;20217;-84
2022/12/27 13:14:09;;;;;;;68.80;4.88;;;9.00;99.90;;;;;;4887148;29;20178;-85
2022/12/27 13:17:05;;;;;;;65.05;4.18;;;9.10;99.90;;;;;;4887691;29;20158;-85
2022/12/27 13:20:05;;;;;;;68.55;5.38;;;9.10;99.90;;;;;;4888104;29;20198;-84
2022/12/27 13:22:57;;;;;;;66.55;5.15;;;9.00;99.90;;;;;;4870938;29;20248;-83
2022/12/27 13:26:04;;;;;;;69.45;6.03;;;9.00;99.90;;;;;;4904056;29;20210;-83
2022/12/27 13:29:14;;;;;;;71.20;5.15;;;9.10;99.90;;;;;;4885771;29;20760;-84
2022/12/27 13:32:17;;;;;;;66.80;5.13;;;9.20;99.90;;;;;;4903960;29;20166;-84
2022/12/27 13:34:49;;;;;;;65.75;4.28;;;9.20;99.90;;;;;;4887690;29;20200;-85
2022/12/27 13:37:44;;;;;;;68.97;4.10;;;9.20;99.90;;;;;;4904345;29;20170;-85
2022/12/27 13:40:47;;;;;;;66.53;4.38;;;9.30;99.90;;;;;;4904754;29;20186;-84
2022/12/27 13:43:40;;;;;;;66.60;4.25;;;9.30;99.90;;;;;;4904118;29;20252;-85
2022/12/27 13:46:34;;;;;;;68.38;4.43;;;9.30;99.90;;;;;;4904301;29;20158;-85
2022/12/27 13:49:30;;;;;;;69.70;5.00;;;9.30;99.90;;;;;;4903695;29;20154;-85
2022/12/27 13:52:09;;;;;;;71.68;4.07;;;9.30;99.90;;;;;;4888106;29;20174;-84
2022/12/27 13:54:57;;;;;;;67.05;4.35;;;9.30;99.90;;;;;;4904135;29;20190;-85
2022/12/27 13:57:25;;;;;;;72.25;5.03;;;9.30;99.90;;;;;;4886956;29;20173;-84
2022/12/27 14:00:04;;;;;;;66.55;4.20;;;9.30;99.90;;;;;;4904532;29;20190;-85
2022/12/27 14:02:36;;;;;;;67.40;4.60;;;9.30;99.90;;;;;;4904721;29;20618;-84
2022/12/27 14:05:02;;;;;;;66.43;4.10;;;9.30;99.90;;;;;;4887145;29;20233;-85
2022/12/27 14:07:30;;;;;;;77.70;4.60;;;9.30;99.90;;;;;;4903897;29;20554;-84
2022/12/27 14:10:18;;;;;;;65.15;3.95;;;9.10;99.90;;;;;;4887125;29;20453;-85
2022/12/27 14:13:05;;;;;;;67.30;4.45;;;9.10;99.90;;;;;;4886834;29;20181;-85
2022/12/27 14:15:33;;;;;;;68.28;5.43;;;9.10;99.90;;;;;;4903639;29;20197;-84
2022/12/27 14:18:28;;;;;;;70.55;5.43;;;9.00;99.90;;;;;;4886578;29;20269;-84
2022/12/27 14:21:18;;;;;;;66.65;4.57;;;9.00;99.90;;;;;;4901137;29;20284;-85
2022/12/27 14:24:12;;;;;;;66.63;4.88;;;9.00;99.90;;;;;;4906719;29;20159;-85
2022/12/27 14:26:53;;;;;;;66.30;4.70;;;8.90;99.90;;;;;;4889997;29;20182;-85
2022/12/27 14:29:21;;;;;;;66.93;4.40;;;8.80;99.90;;;;;;4907057;29;20185;-84
2022/12/27 14:32:24;;;;;;;71.20;4.80;;;8.80;99.90;;;;;;4906688;29;20165;-84
2022/12/27 14:35:16;;;;;;;67.10;4.43;;;8.70;99.90;;;;;;4889936;29;20203;-84
2022/12/27 14:38:03;;;;;;;68.38;4.30;;;8.70;99.90;;;;;;4890879;29;20158;-83
2022/12/27 14:40:29;;;;;;;69.55;4.40;;;8.70;99.90;;;;;;4890695;29;20190;-85
2022/12/27 14:43:27;;;;;;;67.25;4.65;;;8.60;99.90;;;;;;4890544;29;20170;-85
2022/12/27 14:46:17;;;;;;;67.90;4.70;;;8.50;99.90;;;;;;4899598;29;20188;-85
2022/12/27 14:49:04;;;;;;;65.95;4.90;;;8.50;99.90;;;;;;4889201;29;20158;-85
2022/12/27 14:51:45;;;;;;;66.70;5.00;;;8.50;99.90;;;;;;4889253;29;20157;-84
2022/12/27 14:54:38;;;;;;;69.47;4.28;;;8.40;99.90;;;;;;4890167;29;20285;-85
2022/12/27 14:57:46;;;;;;;68.35;5.03;;;8.30;99.90;;;;;;4906579;29;20158;-85
2022/12/27 15:00:18;;;;;;;65.93;4.70;;;8.40;99.90;;;;;;4907435;29;20209;-84
2022/12/27 15:03:11;;;;;;;71.32;5.80;;;8.30;99.90;;;;;;4890957;29;20234;-85
2022/12/27 15:05:54;;;;;;;66.63;4.97;;;8.30;99.90;;;;;;4906930;29;20259;-84
2022/12/27 15:08:22;;;;;;;68.93;4.95;;;8.20;99.90;;;;;;4906700;29;20169;-85
2022/12/27 15:11:21;;;;;;;73.28;6.25;;;8.20;99.90;;;;;;4889533;29;20190;-85
2022/12/27 15:14:08;;;;;;;70.75;4.50;;;8.10;99.90;;;;;;4906810;29;20193;-84
2022/12/27 15:16:40;;;;;;;69.75;5.38;;;8.00;99.90;;;;;;4889478;29;20301;-84
2022/12/27 15:19:16;;;;;;;68.07;5.25;;;8.00;99.90;;;;;;4889133;29;20198;-84
2022/12/27 15:21:56;;;;;;;66.60;4.85;;;7.90;99.90;;;;;;4906285;29;20609;-84
2022/12/27 15:24:49;;;;;;;66.15;4.63;;;7.90;99.90;;;;;;4888332;29;20222;-83
2022/12/27 15:27:33;;;;;;;72.60;5.30;;;7.90;99.90;;;;;;4888677;29;20188;-84
2022/12/27 15:30:21;;;;;;;67.10;4.93;;;7.70;99.90;;;;;;4887862;29;20190;-83
2022/12/27 15:33:19;;;;;;;68.47;5.07;;;7.70;99.90;;;;;;4905006;29;20174;-83
2022/12/27 15:36:16;;;;;;;65.45;4.80;;;7.70;99.90;;;;;;4881765;29;20209;-84
2022/12/27 15:38:52;;;;;;;69.60;4.80;;;7.70;99.90;;;;;;4888727;29;20578;-84
2022/12/27 15:41:36;;;;;;;69.25;5.25;;;7.70;99.90;;;;;;4888310;29;20190;-85
2022/12/27 15:44:38;;;;;;;67.65;5.60;;;7.60;99.90;;;;;;4888566;29;20167;-84
2022/12/27 15:47:25;;;;;;;73.03;5.55;;;7.60;99.90;;;;;;4906051;29;20632;-85
2022/12/27 15:50:08;;;;;;;66.20;4.18;;;7.60;99.90;;;;;;4905498;29;20225;-84
2022/12/27 15:52:59;;;;;;;70.05;6.75;;;7.50;99.90;;;;;;4905056;29;20670;-85
2022/12/27 15:55:47;;;;;;;67.32;5.45;;;7.50;99.90;;;;;;4905931;29;20214;-85
2022/12/27 15:58:21;;;;;;;74.93;6.50;;;7.50;99.90;;;;;;4905106;29;20193;-84
2022/12/27 16:01:29;;;;;;;67.80;5.07;;;7.50;99.90;;;;;;4888446;29;20190;-84
2022/12/27 16:03:57;;;;;;;71.45;5.15;;;7.60;99.90;;;;;;4883966;29;20571;-84
2022/12/27 16:06:43;;;;;;;66.90;4.90;;;7.50;99.90;;;;;;4867533;29;20208;-84
2022/12/27 16:09:35;;;;;;;72.85;5.18;;;7.50;99.90;;;;;;4880648;29;20181;-84
2022/12/27 16:12:10;;;;;;;66.68;4.88;;;7.50;99.90;;;;;;4902973;29;20197;-84
2022/12/27 16:14:41;;;;;;;65.88;4.55;;;7.40;99.90;;;;;;4903736;29;20239;-84
2022/12/27 16:17:12;;;;;;;66.47;4.60;;;7.40;99.90;;;;;;4904015;29;20150;-84
2022/12/27 16:20:06;;;;;;;71.13;4.63;;;7.40;99.90;;;;;;4887216;29;20257;-84
2022/12/27 16:23:12;;;;;;;64.68;4.30;;;7.40;99.90;;;;;;4896427;29;20270;-84
2022/12/27 16:25:40;;;;;;;68.75;5.20;;;7.40;99.90;;;;;;4900550;29;20657;-84
2022/12/27 16:28:07;;;;;;;67.32;4.10;;;7.30;99.90;;;;;;4886732;29;20240;-84
2022/12/27 16:30:46;;;;;;;69.63;4.78;;;7.40;99.90;;;;;;4887067;29;20273;-84
2022/12/27 16:33:32;;;;;;;69.65;4.95;;;7.40;99.90;;;;;;4903836;29;20184;-84
2022/12/27 16:36:25;;;;;;;66.07;4.90;;;7.30;99.90;;;;;;4916263;23;20292;-86
2022/12/27 16:39:31;;;;;;;69.32;4.40;;;7.30;99.90;;;;;;4901306;29;20154;-86
2022/12/27 16:42:04;;;;;;;70.10;4.47;;;7.20;99.90;;;;;;4883038;29;20174;-86
2022/12/27 16:44:55;;;;;;;66.80;4.57;;;7.20;99.90;;;;;;4881957;29;20155;-86
2022/12/27 16:47:41;;;;;;;65.28;4.88;;;7.10;99.90;;;;;;4882939;29;20208;-87
2022/12/27 16:50:35;;;;;;;71.43;5.10;;;7.10;99.90;;;;;;4883940;29;20212;-86
2022/12/27 16:53:45;;;;;;;67.20;4.82;;;7.10;99.90;;;;;;4884022;29;20166;-86
2022/12/27 16:56:25;;;;;;;68.05;5.22;;;7.00;99.90;;;;;;4881685;29;20273;-84
2022/12/27 16:58:51;;;;;;;68.97;5.30;;;7.00;99.90;;;;;;4883367;29;20155;-84
2022/12/27 17:01:36;;;;;;;65.57;4.53;;;7.00;99.90;;;;;;4881072;29;20198;-84
2022/12/27 17:04:02;;;;;;;65.68;4.65;;;7.00;99.90;;;;;;4882319;29;20464;-84
2022/12/27 17:06:28;;;;;;;66.47;4.90;;;7.00;99.90;;;;;;4883598;29;20587;-84
2022/12/27 17:09:09;;;;;;;71.53;4.60;;;7.00;99.90;;;;;;4881828;29;20253;-84
2022/12/27 17:11:40;;;;;;;66.47;4.95;;;7.00;99.90;;;;;;4882457;29;20181;-84
2022/12/27 17:14:30;;;;;;;72.13;4.72;;;7.00;99.90;;;;;;4881974;29;20669;-84
2022/12/27 17:17:19;;;;;;;67.05;4.70;;;6.90;99.90;;;;;;4883333;29;20178;-84
2022/12/27 17:19:55;;;;;;;66.85;4.53;;;7.00;99.90;;;;;;4881447;29;20210;-84
2022/12/27 17:22:24;;;;;;;68.10;4.47;;;6.90;99.90;;;;;;4879822;29;20182;-84
2022/12/27 17:24:56;;;;;;;66.85;4.40;;;6.90;99.90;;;;;;4882259;29;20546;-84
2022/12/27 17:28:06;;;;;;;68.25;4.85;;;6.90;99.90;;;;;;4881661;29;20230;-84
2022/12/27 17:30:58;;;;;;;69.10;5.43;;;6.90;99.90;;;;;;4870620;29;20761;-84
2022/12/27 17:33:30;;;;;;;73.93;5.43;;;6.90;99.90;;;;;;4881784;29;20178;-84
2022/12/27 17:36:28;;;;;;;71.38;5.45;;;6.80;99.90;;;;;;4881820;29;20277;-84
2022/12/27 17:39:28;;;;;;;67.03;4.72;;;6.80;99.90;;;;;;4871898;29;20265;-84
2022/12/27 17:45:02;;;;;;;66.97;5.05;;;6.80;99.90;;;;;;4883081;29;20222;-84
2022/12/27 17:47:51;;;;;;;68.50;5.85;;;6.80;99.90;;;;;;4880804;29;20190;-84
2022/12/27 17:50:24;;;;;;;68.65;5.50;;;6.70;99.90;;;;;;4882496;29;20234;-84
2022/12/27 17:59:26;;;;;;;71.43;6.25;;;6.50;99.90;;;;;;4884708;29;20154;-84
2022/12/27 18:02:10;;;;;;;68.68;6.13;;;6.60;99.90;;;;;;4881479;29;20550;-84
2022/12/27 18:04:41;;;;;;;67.80;5.47;;;6.60;99.90;;;;;;4885125;29;20169;-84
2022/12/27 18:07:11;;;;;;;69.50;5.45;;;6.70;99.90;;;;;;4885819;29;20606;-84
2022/12/27 18:09:48;;;;;;;71.85;5.93;;;6.70;99.90;;;;;;4883054;29;20194;-84
2022/12/27 18:12:24;;;;;;;69.35;5.82;;;6.60;99.90;;;;;;4885138;29;20521;-85
2022/12/27 18:15:07;;;;;;;68.35;5.60;;;6.50;99.90;;;;;;4882720;29;20229;-84
2022/12/27 18:17:42;;;;;;;68.75;7.18;;;6.50;99.90;;;;;;4885143;29;20171;-84
2022/12/27 18:20:27;;;;;;;68.90;5.75;;;6.50;99.90;;;;;;4882339;29;20285;-84
2022/12/27 18:23:01;;;;;;;67.93;4.78;;;6.60;99.90;;;;;;4885061;29;20178;-84
2022/12/27 18:25:41;;;;;;;69.20;5.60;;;6.60;99.90;;;;;;4884311;29;20185;-84
2022/12/27 18:28:25;;;;;;;69.95;5.25;;;6.50;99.90;;;;;;4886300;29;20179;-84
2022/12/27 18:31:01;;;;;;;73.90;6.45;;;6.50;99.90;;;;;;4885203;29;20269;-84
2022/12/27 18:33:33;;;;;;;65.68;4.82;;;6.40;99.90;;;;;;4883917;29;20171;-84
2022/12/27 18:36:02;;;;;;;67.00;6.15;;;6.40;99.90;;;;;;4883667;29;20659;-84
2022/12/27 18:38:37;;;;;;;67.93;6.22;;;6.50;99.90;;;;;;4883534;29;20546;-84
2022/12/27 18:41:18;;;;;;;68.32;5.75;;;6.50;99.90;;;;;;4885626;29;20192;-84
2022/12/27 18:43:48;;;;;;;68.55;5.82;;;6.50;99.90;;;;;;4884807;29;20182;-84
2022/12/27 18:46:17;;;;;;;69.60;5.72;;;6.50;99.90;;;;;;4886682;29;20226;-84
2022/12/27 18:48:43;;;;;;;71.03;6.13;;;6.50;99.90;;;;;;4883910;29;20714;-84
2022/12/27 18:51:09;;;;;;;67.95;5.40;;;6.50;99.90;;;;;;4883947;29;20594;-84
2022/12/27 18:53:37;;;;;;;66.50;5.63;;;6.60;99.90;;;;;;4884084;29;20175;-84
2022/12/27 18:56:04;;;;;;;71.45;6.22;;;6.50;99.90;;;;;;4886077;29;20458;-84
2022/12/27 18:58:31;;;;;;;66.88;5.90;;;6.50;99.90;;;;;;4885668;29;20174;-84
2022/12/27 19:01:01;;;;;;;71.47;6.60;;;6.50;99.90;;;;;;4885019;29;20201;-84
2022/12/27 19:03:28;;;;;;;70.28;6.35;;;6.60;99.90;;;;;;4885519;29;20327;-84
2022/12/27 19:06:11;;;;;;;76.25;6.75;;;6.60;99.90;;;;;;4885913;29;20640;-84
2022/12/27 19:08:51;;;;;;;71.47;5.70;;;6.50;99.90;;;;;;4887417;29;20314;-84
2022/12/27 19:11:27;;;;;;;66.53;5.40;;;6.50;99.90;;;;;;4886331;29;20194;-84
2022/12/27 19:13:56;;;;;;;69.50;6.25;;;6.50;99.90;;;;;;4886860;29;20508;-84
2022/12/27 19:16:33;;;;;;;68.05;5.18;;;6.40;99.90;;;;;;4883310;29;20289;-84
2022/12/27 19:19:23;;;;;;;69.75;6.70;;;6.50;99.90;;;;;;4883796;29;20165;-84
2022/12/27 19:21:48;;;;;;;70.85;6.38;;;6.50;99.90;;;;;;4887713;29;20511;-84
2022/12/27 19:24:34;;;;;;;66.33;5.40;;;6.40;99.90;;;;;;4886448;29;20170;-84
2022/12/27 19:27:14;;;;;;;72.65;6.10;;;6.50;99.90;;;;;;4883855;29;20313;-84
2022/12/27 19:29:49;;;;;;;68.15;5.40;;;6.50;99.90;;;;;;4886449;29;20182;-84
2022/12/27 19:32:37;;;;;;;71.13;5.72;;;6.50;99.90;;;;;;4885441;29;20172;-84
2022/12/27 19:35:04;;;;;;;68.57;6.22;;;6.40;99.90;;;;;;4884859;29;20214;-84
2022/12/27 19:37:31;;;;;;;71.18;6.07;;;6.40;99.90;;;;;;4888055;29;20181;-84
2022/12/27 19:40:00;;;;;;;71.50;6.00;;;6.30;99.90;;;;;;4886376;29;20190;-84
2022/12/27 19:42:29;;;;;;;67.95;5.75;;;6.30;99.90;;;;;;4885530;29;20684;-84
2022/12/27 19:44:55;;;;;;;70.38;6.13;;;6.30;99.90;;;;;;4884643;29;20550;-84
2022/12/27 19:47:21;;;;;;;71.47;6.20;;;6.30;99.90;;;;;;4883553;29;20175;-84
2022/12/27 19:49:46;;;;;;;67.10;5.90;;;6.30;99.90;;;;;;4885679;29;20193;-84
2022/12/27 19:52:17;;;;;;;70.37;6.47;;;6.30;99.90;;;;;;4883795;29;20444;-84
2022/12/27 19:54:44;;;;;;;67.15;5.95;;;6.30;99.90;;;;;;4884436;29;20201;-84
2022/12/27 19:57:11;;;;;;;71.18;7.07;;;6.40;99.90;;;;;;4883666;29;20205;-84
2022/12/27 19:59:38;;;;;;;71.47;5.50;;;6.30;99.90;;;;;;4883913;29;20685;-84
2022/12/27 20:02:04;;;;;;;71.63;6.90;;;6.30;99.90;;;;;;4883537;29;20262;-84
2022/12/27 20:04:30;;;;;;;66.77;6.00;;;6.30;99.90;;;;;;4888432;29;20205;-84
2022/12/27 20:06:55;;;;;;;68.47;6.40;;;6.30;99.90;;;;;;4881816;29;20591;-84
2022/12/27 20:09:21;;;;;;;71.00;5.30;;;6.20;99.90;;;;;;4882716;29;20186;-84
2022/12/27 20:11:50;;;;;;;72.30;6.13;;;6.20;99.90;;;;;;4879932;29;20926;-84
2022/12/27 20:14:18;;;;;;;69.22;6.03;;;6.30;99.90;;;;;;4881820;29;20218;-84
2022/12/27 20:16:45;;;;;;;69.20;7.35;;;6.20;99.90;;;;;;4881532;29;20194;-84
2022/12/27 20:19:15;;;;;;;67.47;6.10;;;6.30;99.90;;;;;;4879506;29;20257;-84
2022/12/27 20:21:41;;;;;;;73.82;6.05;;;6.20;99.90;;;;;;4881423;29;20202;-84
2022/12/27 20:24:11;;;;;;;67.55;5.65;;;6.20;99.90;;;;;;4879995;29;20189;-84
2022/12/27 20:26:36;;;;;;;69.85;5.75;;;6.20;99.90;;;;;;4880142;29;20179;-84
2022/12/27 20:29:03;;;;;;;69.53;5.60;;;6.20;99.90;;;;;;4881357;29;20261;-84
2022/12/27 20:31:29;;;;;;;70.07;6.00;;;6.20;99.90;;;;;;4879867;29;20510;-84
2022/12/27 20:33:55;;;;;;;71.82;6.20;;;6.20;99.90;;;;;;4879851;29;20179;-84
2022/12/27 20:36:24;;;;;;;67.77;5.50;;;6.20;99.90;;;;;;4879588;29;20213;-84
2022/12/27 20:38:52;;;;;;;72.80;5.95;;;6.20;99.90;;;;;;4881411;29;20431;-84
2022/12/27 20:41:20;;;;;;;67.38;5.50;;;6.20;99.90;;;;;;4880899;29;20246;-84
2022/12/27 20:43:53;;;;;;;68.88;5.18;;;6.30;99.90;;;;;;4880640;29;20167;-84
2022/12/27 20:46:19;;;;;;;74.55;6.60;;;6.30;99.90;;;;;;4880756;29;20162;-84
2022/12/27 20:48:45;;;;;;;69.60;5.30;;;6.30;99.90;;;;;;4879163;29;20180;-84
2022/12/27 20:51:14;;;;;;;67.55;5.00;;;6.30;99.90;;;;;;4879143;29;20451;-84
2022/12/27 20:53:43;;;;;;;70.80;5.22;;;6.30;99.90;;;;;;4880767;29;20174;-84
2022/12/27 20:56:11;;;;;;;69.80;5.47;;;6.30;99.90;;;;;;4879386;29;20222;-84
2022/12/27 20:58:37;;;;;;;71.35;4.85;;;6.30;99.90;;;;;;4879029;29;20261;-84
2022/12/27 21:01:21;;;;;;;67.10;4.87;;;6.30;99.90;;;;;;4878995;29;20285;-84
2022/12/27 21:03:47;;;;;;;68.25;5.18;;;6.20;99.90;;;;;;4879641;29;20163;-84
2022/12/27 21:06:19;;;;;;;68.50;5.45;;;6.10;99.90;;;;;;4880431;29;20702;-84
2022/12/27 21:08:45;;;;;;;68.80;5.43;;;6.10;99.90;;;;;;4880831;29;20170;-84
2022/12/27 21:11:17;;;;;;;67.78;4.90;;;6.00;99.90;;;;;;4878889;29;20570;-84
2022/12/27 21:13:44;;;;;;;67.88;5.57;;;6.00;99.90;;;;;;4879076;29;20222;-84
2022/12/27 21:16:12;;;;;;;66.18;5.40;;;5.90;99.90;;;;;;4878711;29;20206;-84
2022/12/27 21:18:38;;;;;;;74.25;5.90;;;5.90;99.90;;;;;;4879056;29;20209;-84
2022/12/27 21:21:07;;;;;;;68.47;6.05;;;5.90;99.90;;;;;;4880232;29;20190;-85
2022/12/27 21:23:36;;;;;;;73.20;5.68;;;6.00;99.90;;;;;;4880058;29;20642;-84
2022/12/27 21:26:07;;;;;;;72.13;6.15;;;6.00;99.90;;;;;;4878844;29;20217;-84
2022/12/27 21:28:33;;;;;;;71.15;5.50;;;6.00;99.90;;;;;;4880738;29;20710;-84
2022/12/27 21:31:00;;;;;;;66.40;5.30;;;6.00;99.90;;;;;;4881613;29;20254;-84
2022/12/27 21:33:29;;;;;;;69.40;5.65;;;6.00;99.90;;;;;;4884292;29;20198;-84
2022/12/27 21:36:03;;;;;;;72.25;6.43;;;5.90;99.90;;;;;;4882653;29;20210;-84
2022/12/27 21:38:30;;;;;;;73.00;5.97;;;5.90;99.90;;;;;;4882626;29;20245;-84
2022/12/27 21:41:01;;;;;;;67.88;6.35;;;5.90;99.90;;;;;;4882230;29;20206;-84
2022/12/27 21:43:27;;;;;;;66.97;7.13;;;5.90;99.90;;;;;;4883028;29;20283;-84
2022/12/27 21:45:54;;;;;;;67.07;5.93;;;5.90;99.90;;;;;;4882454;29;20642;-84
2022/12/27 21:48:20;;;;;;;76.07;6.50;;;5.80;99.90;;;;;;4882648;29;20170;-84
2022/12/27 21:50:46;;;;;;;71.65;6.20;;;5.90;99.90;;;;;;4882353;29;20202;-84
2022/12/27 21:53:14;;;;;;;69.60;6.33;;;5.90;99.90;;;;;;4882191;29;20189;-84
2022/12/27 21:55:40;;;;;;;65.90;6.13;;;5.90;99.90;;;;;;4882233;29;20678;-84
2022/12/27 21:58:06;;;;;;;65.80;5.70;;;5.90;99.90;;;;;;4883644;29;20171;-84
2022/12/27 22:00:31;;;;;;;66.80;4.90;;;5.90;99.90;;;;;;4882384;29;20192;-84
2022/12/27 22:02:57;;;;;;;68.67;6.70;;;5.80;99.90;;;;;;4883463;29;20170;-84
2022/12/27 22:05:23;;;;;;;68.37;6.40;;;5.90;99.90;;;;;;4883435;29;20177;-84
2022/12/27 22:07:48;;;;;;;67.50;5.90;;;5.90;99.90;;;;;;4882241;29;20713;-84
2022/12/27 22:10:14;;;;;;;65.70;5.73;;;5.90;99.90;;;;;;4882488;29;20829;-84
2022/12/27 22:12:40;;;;;;;71.83;5.90;;;5.90;99.90;;;;;;4883597;29;20174;-84
2022/12/27 22:15:06;;;;;;;69.37;6.33;;;5.90;99.90;;;;;;4883544;29;20194;-84
2022/12/27 22:17:31;;;;;;;70.68;6.90;;;6.00;99.90;;;;;;4883519;29;20174;-84
2022/12/27 22:19:57;;;;;;;69.33;5.90;;;6.00;99.90;;;;;;4883573;29;20187;-84
2022/12/27 22:22:23;;;;;;;66.40;5.50;;;6.00;99.90;;;;;;4882713;29;20175;-87
2022/12/27 22:24:48;;;;;;;66.57;5.23;;;6.00;99.90;;;;;;4882059;29;20261;-86
2022/12/27 22:27:14;;;;;;;67.47;5.50;;;6.00;99.90;;;;;;4881608;29;20170;-86
2022/12/27 22:29:40;;;;;;;68.37;5.00;;;6.00;99.90;;;;;;4883557;29;20281;-87
2022/12/27 22:32:05;;;;;;;68.80;5.53;;;6.00;99.90;;;;;;4881674;29;20174;-87
2022/12/27 22:37:02;;;;;;;71.90;7.15;;;6.10;99.90;;;;;;4924046;29;20205;-87
2022/12/27 22:39:27;;;;;;;66.37;5.70;;;6.00;99.90;;;;;;4921878;29;20193;-87
2022/12/27 22:41:53;;;;;;;68.67;6.47;;;6.00;99.90;;;;;;4889150;29;20177;-87
2022/12/27 22:44:19;;;;;;;68.50;5.90;;;6.10;99.90;;;;;;4889714;29;20174;-87
2022/12/27 22:46:45;;;;;;;69.07;5.87;;;6.00;99.90;;;;;;4906592;29;20435;-87
2022/12/27 22:49:10;;;;;;;66.87;6.13;;;6.10;99.90;;;;;;4907097;29;20166;-87
2022/12/27 22:51:38;;;;;;;68.30;5.20;;;6.10;99.90;;;;;;4889681;29;20173;-87
2022/12/27 22:54:05;;;;;;;66.70;5.70;;;6.00;99.90;;;;;;4890160;29;20174;-86
2022/12/27 22:56:34;;;;;;;66.97;5.65;;;6.10;99.90;;;;;;4890445;29;20292;-87
2022/12/27 22:59:00;;;;;;;66.95;4.90;;;6.10;99.90;;;;;;4906661;29;20168;-86
2022/12/27 23:01:30;;;;;;;65.45;4.97;;;6.10;99.90;;;;;;4906446;29;20190;-87
2022/12/27 23:03:57;;;;;;;67.78;5.95;;;6.10;99.90;;;;;;4889657;29;20166;-87
2022/12/27 23:06:24;;;;;;;75.32;6.63;;;6.10;99.90;;;;;;4889455;29;20198;-87
2022/12/27 23:08:49;;;;;;;69.80;5.45;;;6.10;99.90;;;;;;4906640;29;20206;-87
2022/12/27 23:11:18;;;;;;;69.17;5.93;;;6.10;99.90;;;;;;4906277;29;20196;-87
2022/12/27 23:13:44;;;;;;;67.82;5.82;;;6.10;99.90;;;;;;4906662;29;20166;-87
2022/12/27 23:16:10;;;;;;;73.03;6.37;;;6.10;99.90;;;;;;4906526;29;20193;-87
2022/12/27 23:18:38;;;;;;;71.75;6.57;;;6.10;99.90;;;;;;4906041;29;20770;-87
2022/12/27 23:21:06;;;;;;;67.65;6.10;;;6.10;99.90;;;;;;4906499;29;20665;-87
2022/12/27 23:23:33;;;;;;;68.50;5.95;;;6.10;99.90;;;;;;4889939;29;20295;-87
2022/12/27 23:26:04;;;;;;;68.63;4.95;;;6.10;99.90;;;;;;4907059;29;20721;-86
2022/12/27 23:28:30;;;;;;;67.68;5.20;;;6.10;99.90;;;;;;4890507;29;20197;-87
2022/12/27 23:30:55;;;;;;;68.50;5.50;;;6.10;99.90;;;;;;4890917;29;20205;-87
2022/12/27 23:33:21;;;;;;;74.67;6.53;;;6.20;99.90;;;;;;4906911;29;20226;-87
2022/12/27 23:35:47;;;;;;;65.60;5.20;;;6.20;99.90;;;;;;4889584;29;20229;-87
2022/12/27 23:38:12;;;;;;;66.50;4.93;;;6.20;99.90;;;;;;4907498;29;20559;-87
2022/12/27 23:40:38;;;;;;;71.40;6.10;;;6.20;99.90;;;;;;4890114;29;20294;-87
2022/12/27 23:43:04;;;;;;;70.57;5.90;;;6.30;99.90;;;;;;4889646;29;20651;-87
2022/12/27 23:45:29;;;;;;;66.20;5.43;;;6.30;99.90;;;;;;4889680;29;20198;-86
2022/12/27 23:47:55;;;;;;;66.60;5.20;;;6.40;99.90;;;;;;4906624;29;20213;-87
2022/12/27 23:50:21;;;;;;;66.47;5.00;;;6.40;99.90;;;;;;4906192;29;20226;-86
2022/12/27 23:52:46;;;;;;;69.30;6.10;;;6.40;99.90;;;;;;4906623;29;20196;-87
2022/12/27 23:55:12;;;;;;;66.20;5.70;;;6.30;99.90;;;;;;4906817;29;20254;-87
2022/12/27 23:57:37;;;;;;;71.20;5.90;;;6.30;99.90;;;;;;4890622;29;20181;-87
